Prince George, Canada
Current Conditions -  °F | °C
As of 2:00 PM on Monday 20 Oct 2014 (Local Time) from CYXS Reporting Station
Broken Clouds Broken Clouds  
Wind Chill: 55°   Ceiling: 9000
Heat Index: 55°   Visibility: 9mi
Dew Point: 41°   Wind: 10mph
Humidity: 58%   Direction: 180°S
Pressure: 29.55"   Gusts: NA
Location:  53.91°N, 122.75°W
Report Text: CYXS 202100Z AUTO 18009KT 9SM BKN090 13/05 A2955 RMK TS/LTNG TEMPO UNAVBL SLP013 DENSITY ALT 2900FT
Loading
Personal Weather Stations






























Interactive Weather Map
Tropical Storm Tracking
New forecast layout! Learn more

10-Day Weather Forecast

Advertisements
Track Severe Weather on mobile